Time;durP1;ratioP1;P1;durP2;ratioP2;P2;SDS_P1;SDS_P2;PMS_P1;PMS_P2;Temp;Humidity;BMP_temperature;BMP_pressure;BME280_temperature;BME280_humidity;BME280_pressure;Samples;Min_cycle;Max_cycle;Signal;HPM_P1;HPM_P2
2022/08/28 00:00:40;;;;;;;;;;;;;;;18.42;88.71;97927.69;5055807;28;20294;-85
2022/08/28 00:03:09;;;;;;;;;;;;;;;18.35;88.72;97922.84;5055193;28;19924;-85
2022/08/28 00:05:39;;;;;;;;;;;;;;;18.34;88.64;97926.75;5046052;28;20335;-85
2022/08/28 00:08:08;;;;;;;;;;;;;;;18.36;88.53;97923.63;5052960;28;20402;-85
2022/08/28 00:10:38;;;;;;;;;;;;;;;18.35;88.40;97922.03;5055066;28;19932;-84
2022/08/28 00:13:06;;;;;;;;;;;;;;;18.32;88.52;97918.03;5054023;28;20023;-85
2022/08/28 00:15:36;;;;;;;;;;;;;;;18.32;88.33;97920.78;5050154;28;19925;-83
2022/08/28 00:18:07;;;;;;;;;;;;;;;18.26;88.27;97920.28;5053204;28;19924;-86
2022/08/28 00:20:35;;;;;;;;;;;;;;;18.28;88.17;97923.50;5049298;28;20355;-86
2022/08/28 00:23:04;;;;;;;;;;;;;;;18.28;88.17;97920.75;5055333;28;21838;-85
2022/08/28 00:25:33;;;;;;;;;;;;;;;18.04;88.38;97924.56;5056455;28;20015;-85
2022/08/28 00:30:56;;;;;;;;;;;;;;;17.94;88.66;97927.06;5040995;28;19920;-86
2022/08/28 00:33:51;;;;;;;249.27;122.63;;;;;;;18.08;88.51;97921.88;5055980;28;20434;-87
2022/08/28 00:36:19;;;;;;;;;;;;;;;18.14;88.04;97920.44;5053285;28;20872;-86
2022/08/28 00:38:49;;;;;;;;;;;;;;;18.12;88.34;97925.50;5054645;28;20058;-86
2022/08/28 00:44:12;;;;;;;;;;;;;;;18.13;87.75;97926.31;5063897;28;19925;-84
2022/08/28 00:46:40;;;;;;;;;;;;;;;18.19;87.76;97933.09;5058597;28;20309;-86
2022/08/28 00:49:11;;;;;;;;;;;;;;;18.15;87.53;97924.78;5055349;28;19944;-85
2022/08/28 00:54:28;;;;;;;;;;;;;;;18.11;87.23;97923.09;5054102;28;19925;-85
2022/08/28 00:56:57;;;;;;;;;;;;;;;18.06;87.24;97922.25;5063028;28;19929;-85
2022/08/28 00:59:26;;;;;;;;;;;;;;;17.99;86.95;97926.78;5058397;28;19991;-85
2022/08/28 01:01:55;;;;;;;;;;;;;;;18.03;87.12;97927.66;5060586;28;19990;-84
2022/08/28 01:04:23;;;;;;;;;;;;;;;18.01;86.50;97924.50;5054488;28;19924;-84
2022/08/28 01:06:52;;;;;;;;;;;;;;;18.01;86.75;97927.25;5050290;28;19927;-83
2022/08/28 01:09:24;;;;;;;;;;;;;;;17.96;86.60;97928.31;5047962;28;20019;-84
2022/08/28 01:11:57;;;;;;;;;;;;;;;17.93;86.96;97926.28;5042707;28;20008;-84
2022/08/28 01:14:28;;;;;;;;;;;;;;;17.90;86.72;97928.97;5048218;28;20004;-84
2022/08/28 01:16:56;;;;;;;;;;;;;;;17.86;86.92;97930.81;5042158;28;19925;-83
2022/08/28 01:19:30;;;;;;;;;;;;;;;17.86;86.89;97928.06;5049597;28;20378;-84
2022/08/28 01:22:06;;;;;;;;;;;;;;;17.70;87.02;97930.84;5047658;28;19955;-84
2022/08/28 01:24:36;;;;;;;;;;;;;;;17.75;87.04;97931.38;5044188;28;20001;-82
2022/08/28 01:27:04;;;;;;;;;;;;;;;17.84;86.66;97930.38;5049778;28;19948;-83
2022/08/28 01:29:57;;;;;;;;;;;;;;;17.84;87.15;97930.38;5048399;28;19927;-86
2022/08/28 01:32:30;;;;;;;;;;;;;;;17.83;86.99;97932.31;5056661;28;19921;-86
2022/08/28 01:35:01;;;;;;;;;;;;;;;17.85;86.64;97932.00;5055736;28;19921;-85
2022/08/28 01:37:30;;;;;;;;;;;;;;;17.78;87.20;97933.41;5048385;28;19921;-84
2022/08/28 01:40:01;;;;;;;;;;;;;;;17.78;86.89;97925.16;5052267;28;19921;-86
2022/08/28 01:42:29;;;;;;;;;;;;;;;17.66;86.94;97929.94;5051250;28;19921;-85
2022/08/28 01:44:57;;;;;;;;;;;;;;;17.73;86.99;97930.13;5041963;28;19925;-86
2022/08/28 01:47:27;;;;;;;;;;;;;;;17.80;86.78;97925.59;5044312;28;20351;-85
2022/08/28 01:49:55;;;;;;;;;;;;;;;17.80;86.65;97924.81;5043331;28;19925;-85
2022/08/28 01:52:25;;;;;;;;;;;;;;;17.76;86.55;97926.69;5046668;28;20379;-86
2022/08/28 01:54:56;;;;;;;;;;;;;;;17.72;86.83;97923.84;5052041;28;19987;-85
2022/08/28 01:57:29;;;;;;;;;;;;;;;17.78;86.50;97925.16;5047727;28;19966;-84
2022/08/28 01:59:57;;;;;;;;;;;;;;;17.63;87.16;97925.97;5066547;28;20008;-86
2022/08/28 02:02:25;;;;;;;;;;;;;;;17.68;86.78;97922.91;5051569;28;20283;-83
2022/08/28 02:04:57;;;;;;;;;;;;;;;17.71;86.84;97922.22;5059606;28;20383;-84
2022/08/28 02:07:25;;;;;;;;;;;;;;;17.73;86.80;97925.44;5046958;28;19925;-85
2022/08/28 02:09:53;;;;;;;;;;;;;;;17.71;87.00;97930.47;5050649;28;19978;-85
2022/08/28 02:12:21;;;;;;;;;;;;;;;17.72;86.70;97925.75;5053835;28;19921;-86
2022/08/28 02:14:50;;;;;;;;;;;;;;;17.72;86.57;97923.84;5047164;28;20004;-86
2022/08/28 02:17:18;;;;;;;;;;;;;;;17.77;86.52;97926.31;5050709;28;19968;-86
2022/08/28 02:19:46;;;;;;;;;;;;;;;17.75;86.77;97928.63;5048339;28;19956;-84
2022/08/28 02:26:15;;;;;;;;;;;;;;;17.63;86.99;97933.38;5034604;28;20383;-83
2022/08/28 02:29:04;;;;;;;;;;;;;;;17.66;86.89;97932.69;5044237;28;19925;-82
2022/08/28 02:31:54;;;;;;;;;;;;;;;17.68;86.36;97930.38;5041154;28;19924;-86
2022/08/28 02:34:43;;;;;;;;;;;;;;;17.65;86.55;97933.84;5039632;28;19932;-84
2022/08/28 02:37:33;;;;;;;;;;;;;;;17.59;86.62;97927.84;5042458;28;20017;-81
2022/08/28 02:40:22;;;;;;;;;;;;;;;17.67;86.58;97940.56;5041132;28;19932;-83
2022/08/28 02:43:11;;;;;;;;;;;;;;;17.60;86.30;97932.16;5041684;28;19920;-83
2022/08/28 02:46:02;;;;;;;;;;;;;;;17.62;86.47;97932.59;5040526;28;19928;-84
2022/08/28 02:48:52;;;;;;;;;;;;;;;17.57;86.58;97932.88;5029538;28;19925;-82
2022/08/28 02:51:40;;;;;;;;;;;;;;;17.55;86.68;97929.69;5043745;28;19921;-82
2022/08/28 02:54:53;;;;;;;;;;;;;;;17.51;86.47;97928.81;5034154;28;20403;-83
2022/08/28 02:57:41;;;;;;;;;;;;;;;17.58;86.26;97934.50;5049610;28;19927;-82
2022/08/28 03:00:29;;;;;;;;;;;;;;;17.57;86.14;97927.38;5056097;28;19994;-84
2022/08/28 03:03:19;;;;;;;;;;;;;;;17.55;85.96;97924.19;5041516;28;19929;-81
2022/08/28 03:06:10;;;;;;;;;;;;;;;17.50;86.24;97933.50;5037481;28;19932;-82
2022/08/28 03:08:58;;;;;;;;;;;;;;;17.47;86.57;97928.75;5041741;28;20035;-84
2022/08/28 03:11:47;;;;;;;;;;;;;;;17.48;86.59;97926.78;5043901;28;20582;-83
2022/08/28 03:14:35;;;;;;;;;;;;;;;17.48;86.30;97932.28;5038780;28;19921;-82
2022/08/28 03:17:24;;;;;;;;;;;;;;;17.49;86.39;97926.44;5043340;28;20038;-82
2022/08/28 03:20:13;;;;;;;;;;;;;;;17.50;85.80;97927.22;5037953;28;19921;-81
2022/08/28 03:23:26;;;;;;;;;;;;;;;17.48;85.84;97930.34;5035698;28;20014;-83
2022/08/28 03:26:17;;;;;;;;;;;;;;;17.53;85.69;97924.56;5039892;28;20487;-84
2022/08/28 03:32:17;;;;;;;;;;;;;;;17.46;86.08;97927.13;5045473;28;19931;-79
2022/08/28 03:35:08;;;;;;;;;;;;;;;17.42;86.12;97925.47;5040939;28;20029;-83
2022/08/28 03:41:35;;;;;;;;;;;;;;;17.40;86.17;97922.25;5039240;28;19921;-84
2022/08/28 03:44:23;;;;;;;;;;;;;;;17.33;86.39;97927.59;5039427;28;20565;-81
2022/08/28 03:50:49;;;;;;;;;;;;;;;17.36;85.87;97933.16;5046719;28;20009;-81
2022/08/28 03:53:40;;;;;;;;;;;;;;;17.31;86.24;97938.13;5042255;28;19924;-82
2022/08/28 03:56:29;;;;;;;;;;;;;;;17.22;86.31;97938.31;5061758;28;19925;-82
2022/08/28 03:59:18;;;;;;;;;;;;;;;17.27;86.78;97946.28;5041963;28;20660;-82
2022/08/28 04:02:07;;;;;;;;;;;;;;;17.35;86.45;97945.28;5046349;28;19959;-83
2022/08/28 04:04:56;;;;;;;;;;;;;;;17.34;86.16;97945.66;5040994;28;19921;-80
2022/08/28 04:07:46;;;;;;;;;;;;;;;17.26;86.33;97950.19;5041938;28;20015;-83
2022/08/28 04:10:35;;;;;;;;;;;;;;;17.29;86.25;97949.47;5053065;28;19947;-81
2022/08/28 04:13:25;;;;;;;;;;;;;;;17.31;85.88;97947.19;5041909;28;19924;-82
2022/08/28 04:16:18;;;;;;;;;;;;;;;17.41;85.81;97951.31;5047049;28;19920;-82
2022/08/28 04:19:06;;;;;;;;;;;;;;;17.37;85.94;97958.69;5038351;28;19921;-82
2022/08/28 04:21:54;;;;;;;;;;;;;;;17.32;86.16;97958.97;5042159;28;20299;-83
2022/08/28 04:24:43;;;;;;;;;;;;;;;17.36;86.24;97959.81;5034258;28;19929;-81
2022/08/28 04:27:31;;;;;;;;;;;;;;;17.44;86.01;97956.09;5039428;28;19964;-84
2022/08/28 04:30:19;;;;;;;;;;;;;;;17.57;85.57;97963.09;5041438;28;19988;-79
2022/08/28 04:33:10;;;;;;;;;;;;;;;17.41;85.34;97962.31;5045253;28;19924;-83
2022/08/28 04:36:01;;;;;;;;;;;;;;;17.37;85.92;97958.69;5047007;28;19925;-84
2022/08/28 04:38:50;;;;;;;;;;;;;;;17.37;85.36;97955.94;5039349;28;20407;-82
2022/08/28 04:41:38;;;;;;;;;;;;;;;17.35;85.54;97961.78;5044904;28;19921;-82
2022/08/28 04:44:27;;;;;;;;;;;;;;;17.32;85.77;97962.50;5050139;28;19920;-85
2022/08/28 04:47:15;;;;;;;;;;;;;;;17.30;86.03;97970.28;5043803;28;19928;-84
2022/08/28 04:50:06;;;;;;;;;;;;;;;17.30;86.21;97970.28;5047111;28;20054;-83
2022/08/28 04:56:08;;;;;;;;;;;;;;;17.34;85.87;97973.13;5040288;28;19955;-83
2022/08/28 04:58:57;;;;;;;;;;;;;;;17.37;86.08;97967.72;5039502;28;19921;-81
2022/08/28 05:01:46;;;;;;;;;;;;;;;17.36;85.71;97971.59;5043796;28;20363;-79
2022/08/28 05:04:37;;;;;;;;;;;;;;;17.48;84.70;97978.97;5042353;28;20403;-84
2022/08/28 05:07:27;;;;;;;;;;;;;;;17.53;84.75;97975.97;5043702;28;19921;-83
2022/08/28 05:10:15;;;;;;;;;;;;;;;17.42;85.16;97970.22;5041985;28;19928;-82
2022/08/28 05:13:04;;;;;;;;;;;;;;;17.34;85.20;97975.88;5040345;28;19920;-83
2022/08/28 05:15:54;;;;;;;;;;;;;;;17.40;85.20;97986.22;5041803;28;19929;-83
2022/08/28 05:18:42;;;;;;;;;;;;;;;17.46;84.60;97989.50;5041117;28;19925;-81
2022/08/28 05:21:30;;;;;;;;;;;;;;;17.46;84.69;97992.25;5031114;28;19924;-82
2022/08/28 05:24:20;;;;;;;;;;;;;;;17.36;84.55;97992.78;5039524;28;20400;-82
2022/08/28 05:27:34;;;;;;;;;;;;;;;17.34;84.70;97992.34;5041466;28;19925;-83
2022/08/28 05:30:22;;;;;;;;;;;;;;;17.38;85.05;97993.25;5040159;28;19975;-83
2022/08/28 05:33:13;;;;;;;;;;;;;;;17.34;84.42;97995.88;5041323;28;20307;-82
2022/08/28 05:36:04;;;;;;;;;;;;;;;17.33;85.49;97999.00;5040893;28;20023;-81
2022/08/28 05:38:54;;;;;;;;;;;;;;;17.28;85.04;97997.28;5036622;28;20372;-82
2022/08/28 05:41:45;;;;;;;;;;;;;;;17.33;85.37;98004.47;5042789;28;19957;-84
2022/08/28 05:44:33;;;;;;;;;;;;;;;17.47;84.78;98010.31;5049887;28;19925;-84
2022/08/28 05:47:22;;;;;;;;;;;;;;;17.63;84.01;98015.81;5043114;28;19924;-86
2022/08/28 05:50:15;;;;;;;;;;;;;;;17.55;84.25;98018.38;5039758;28;19935;-82
2022/08/28 05:53:03;;;;;;;;;;;;;;;17.49;84.61;98016.28;5046243;28;19928;-85
2022/08/28 05:55:51;;;;;;;;;;;;;;;17.51;84.53;98017.50;5039043;28;19927;-84
2022/08/28 05:58:41;;;;;;;;;;;;;;;17.57;84.60;98014.50;5056726;28;20392;-83
2022/08/28 06:01:30;;;;;;;;;;;;;;;17.59;84.42;98015.75;5039725;28;19990;-82
2022/08/28 06:04:21;;;;;;;;;;;;;;;17.68;84.06;98019.09;5037255;28;19986;-83
2022/08/28 06:10:23;;;;;;;;;;;;;;;17.65;84.01;98019.81;5034430;28;19947;-84
2022/08/28 06:13:12;;;;;;;;;;;;;;;17.68;83.47;98016.34;5034264;28;19921;-81
2022/08/28 06:16:01;;;;;;;;;;;;;;;17.75;83.40;98019.31;5039384;28;20373;-82
2022/08/28 06:18:50;;;;;;;;;;;;;;;17.59;83.75;98015.75;5039355;28;19932;-83
2022/08/28 06:21:39;;;;;;;;;;;;;;;17.60;83.96;98020.09;5036176;28;20010;-83
2022/08/28 06:24:28;;;;;;;;;;;;;;;17.57;83.37;98025.47;5036017;28;20012;-81
2022/08/28 06:27:16;;;;;;;;;;;;;;;17.69;83.26;98028.94;5031734;28;20403;-81
2022/08/28 06:30:05;;;;;;;;;;;;;;;17.72;83.64;98033.75;5039481;28;19920;-82
2022/08/28 06:32:58;;;;;;;;;;;;;;;17.75;83.02;98035.78;5035306;28;19920;-84
2022/08/28 06:35:48;;;;;;;;;;;;;;;17.95;82.08;98033.09;5041409;28;20019;-80
2022/08/28 06:38:36;;;;;;;;;;;;;;;17.81;82.35;98030.81;5041798;28;19921;-84
2022/08/28 06:41:26;;;;;;;;;;;;;;;17.79;82.71;98033.94;5042108;28;20470;-84
2022/08/28 06:44:18;;;;;;;;;;;;;;;17.91;82.54;98040.50;5045527;28;19964;-85
2022/08/28 06:47:07;;;;;;;;;;;;;;;17.86;82.44;98038.00;5039274;28;20291;-84
2022/08/28 06:49:57;;;;;;;;;;;;;;;18.05;81.83;98046.31;5045158;28;19921;-87
2022/08/28 06:52:45;;;;;;;;;;;;;;;18.14;81.88;98038.66;5037479;28;19925;-84
2022/08/28 06:55:40;;;;;;;;;;;;;;;18.17;81.17;98040.72;5044278;28;19928;-79
2022/08/28 06:58:29;;;;;;;;;;;;;;;18.11;81.47;98039.41;5042696;28;19925;-78
2022/08/28 07:01:23;;;;;;;;;;;;;;;18.02;81.27;98033.28;5045965;28;20055;-79
2022/08/28 07:04:13;;;;;;;;;;;;;;;18.20;80.51;98042.72;5045050;28;19921;-77
2022/08/28 07:07:03;;;;;;;;;;;;;;;18.11;80.98;98044.91;5041098;28;19921;-77
2022/08/28 07:10:15;;;;;;;;;;;;;;;17.97;81.30;98044.56;5044413;28;20402;-79
2022/08/28 07:13:05;;;;;;;;;;;;;;;18.02;80.83;98053.31;5037294;28;19932;-76
2022/08/28 07:15:54;;;;;;;;;;;;;;;18.15;81.00;98051.25;5041744;28;19927;-77
2022/08/28 07:18:42;;;;;;;;;;;;;;;18.24;80.84;98049.13;5044277;28;19928;-75
2022/08/28 07:21:31;;;;;;;;;;;;;;;18.32;80.25;98059.13;5043242;28;20050;-78
2022/08/28 07:24:22;;;;;;;;;;;;;;;18.41;79.78;98058.13;5042198;28;20366;-79
2022/08/28 07:27:16;;;;;;;;;;;;;;;18.23;79.60;98058.53;5039079;28;19925;-86
2022/08/28 07:30:07;;;;;;;;;;;;;;;18.16;79.48;98052.06;5043079;28;20655;-79
2022/08/28 07:32:57;;;;;;;;;;;;;;;18.16;80.25;98063.84;5044180;28;19921;-81
2022/08/28 07:35:46;;;;;;;;;;;;;;;18.08;79.63;98064.06;5042496;28;19968;-81
2022/08/28 07:38:34;;;;;;;;;;;;;;;18.27;80.13;98064.13;5044873;28;19925;-83
2022/08/28 07:41:25;;;;;;;;;;;;;;;18.21;79.13;98066.31;5045429;28;19929;-79
2022/08/28 07:47:20;;;;;;;;;;;;;;;18.40;79.69;98073.03;5042006;28;20330;-80
2022/08/28 07:50:09;;;;;;;;;;;;;;;18.38;79.84;98078.13;5047862;28;20226;-83
2022/08/28 07:52:57;;;;;;;;;;;;;;;18.46;78.92;98071.59;5046261;28;19980;-85
2022/08/28 07:55:45;;;;;;;;;;;;;;;18.41;79.49;98074.63;5037037;28;19979;-83
2022/08/28 07:58:59;;;;;;;;;;;;;;;18.43;79.00;98067.63;5039980;28;19925;-83
2022/08/28 08:01:49;;;;;;;;;;;;;;;18.41;79.19;98078.19;5041581;28;20371;-84
2022/08/28 08:04:38;;;;;;;;;;;;;;;18.28;78.58;98082.22;5050699;28;19932;-84
2022/08/28 08:07:27;;;;;;;;;;;;;;;18.45;79.38;98089.25;5041575;28;20535;-82
2022/08/28 08:10:16;;;;;;;;;;;;;;;18.54;79.15;98081.63;5038272;28;19925;-83
2022/08/28 08:13:07;;;;;;;;;;;;;;;18.56;78.28;98082.03;5037003;28;20547;-84
2022/08/28 08:15:56;;;;;;;;;;;;;;;18.51;78.73;98087.81;5046932;28;20394;-81
2022/08/28 08:18:45;;;;;;;;;;;;;;;18.52;79.25;98089.41;5042093;28;19936;-84
2022/08/28 08:21:36;;;;;;;;;;;;;;;18.58;78.42;98097.03;5043919;28;19925;-82
2022/08/28 08:24:24;;;;;;;;;;;;;;;18.56;78.08;98088.34;5045525;28;19933;-80
2022/08/28 08:27:39;;;;;;;;;;;;;;;18.61;77.10;98095.53;5049221;28;19925;-81
2022/08/28 08:30:30;;;;;;;8.90;4.33;;;;;;;18.71;77.14;98100.50;5044880;28;20408;-82
2022/08/28 08:33:20;;;;;;;;;;;;;;;18.90;76.29;98107.16;5050211;28;20476;-79
2022/08/28 08:36:09;;;;;;;;;;;;;;;18.99;75.53;98105.00;5040838;28;19928;-80
2022/08/28 08:38:59;;;;;;;;;;;;;;;19.14;75.32;98106.91;5039518;28;19921;-84
2022/08/28 08:41:48;;;;;;;;;;;;;;;19.29;74.30;98111.53;5047395;28;19921;-80
2022/08/28 08:44:39;;;;;;;;;;;;;;;19.47;74.47;98111.06;5037389;28;19921;-79
2022/08/28 08:47:31;;;;;;;;;;;;;;;19.72;72.45;98115.13;5037905;28;19936;-80
2022/08/28 08:50:22;;;;;;;;;;;;;;;19.84;71.89;98109.41;5041773;28;20303;-77
2022/08/28 08:53:14;;;;;;;;;;;;;;;19.69;72.34;98117.78;5045981;28;19943;-80
2022/08/28 08:56:04;;;;;;;;;;;;;;;19.38;71.56;98119.53;5043278;28;19921;-81
2022/08/28 08:58:53;;;;;;;;;;;;;;;19.50;71.57;98115.84;5045642;28;20020;-79
2022/08/28 09:01:42;;;;;;;;;;;;;;;19.38;72.08;98120.34;5043731;28;19927;-78
2022/08/28 09:07:49;;;;;;;;;;;;;;;19.66;70.36;98122.09;5044083;28;19999;-80
2022/08/28 09:10:41;;;;;;;;;;;;;;;19.48;69.18;98126.44;5040339;28;19935;-78
2022/08/28 09:13:32;;;;;;;;;;;;;;;19.35;69.32;98129.34;5043560;28;19932;-80
2022/08/28 09:16:26;;;;;;;;;;;;;;;19.45;69.58;98127.97;5042973;28;19956;-80
2022/08/28 09:19:15;;;;;;;;;;;;;;;19.70;69.54;98127.66;5042521;28;19943;-79
2022/08/28 09:22:06;;;;;;;;;;;;;;;19.47;67.37;98127.59;5048793;28;19966;-80
2022/08/28 09:24:56;;;;;;;;;;;;;;;19.45;67.43;98127.19;5053030;28;20112;-80
2022/08/28 09:27:46;;;;;;;;;;;;;;;19.73;67.61;98122.22;5038729;28;19924;-78
2022/08/28 09:30:41;;;;;;;;;;;;;;;20.03;67.66;98127.06;5040637;28;19924;-79
2022/08/28 09:33:35;;;;;;;;;;;;;;;20.06;68.65;98124.34;5039692;28;19921;-80
2022/08/28 09:36:26;;;;;;;;;;;;;;;19.84;66.64;98125.94;5042280;28;19928;-78
2022/08/28 09:39:17;;;;;;;;;;;;;;;20.03;67.02;98127.06;5040336;28;19921;-80
2022/08/28 09:45:21;;;;;;;;;;;;;;;20.03;65.79;98127.06;5044614;28;20051;-79
2022/08/28 09:48:17;;;;;;;;;;;;;;;19.98;66.35;98127.38;5051396;28;19927;-77
2022/08/28 09:51:30;;;;;;;;;;;;;;;20.06;65.85;98123.56;5061270;28;19928;-78
2022/08/28 09:54:21;;;;;;;;;;;;;;;20.41;65.39;98121.38;5059999;28;20164;-79
2022/08/28 09:57:11;;;;;;;;;;;;;;;20.25;63.83;98131.78;5058149;28;19925;-78
2022/08/28 10:00:00;;;;;;;;;;;;;;;20.51;62.98;98121.94;5050023;28;20019;-78
2022/08/28 10:02:34;;;;;;;;;;;;;;;20.67;62.79;98120.59;5046740;28;19928;-87
2022/08/28 10:05:04;;;;;;;;;;;;;;;20.84;62.68;98121.22;5049613;28;19921;-89
2022/08/28 10:07:36;;;;;;;;;;;;;;;21.27;62.88;98121.75;5053785;28;20422;-89
2022/08/28 10:10:27;;;;;;;;;;;;;;;20.91;61.83;98124.06;5050185;28;19920;-87
2022/08/28 10:13:04;;;;;;;;;;;;;;;21.15;61.75;98117.28;5053070;28;19964;-91
2022/08/28 10:15:37;;;;;;;;;;;;;;;21.33;62.27;98131.34;5039616;28;20424;-81
2022/08/28 10:18:38;;;;;;;;;;;;;;;21.34;61.99;98122.66;5039894;28;19928;-79
2022/08/28 10:21:27;;;;;;;;;;;;;;;21.14;62.28;98123.97;5045088;28;19924;-81
2022/08/28 10:24:12;;;;;;;;;;;;;;;21.13;62.36;98120.41;5047960;28;20379;-80
2022/08/28 10:27:03;;;;;;;;;;;;;;;20.77;61.41;98113.63;5044642;28;19921;-79
2022/08/28 10:30:02;;;;;;;;;;;;;;;21.17;61.44;98114.94;5051923;28;19921;-83
2022/08/28 10:32:51;;;;;;;;;;;;;;;21.05;60.07;98115.19;5045744;28;20018;-81
2022/08/28 10:35:20;;;;;;;;;;;;;;;21.06;62.32;98116.78;5023900;28;20402;-83
2022/08/28 10:37:57;;;;;;;;;;;;;;;21.30;62.67;98124.59;5046949;28;19920;-81
2022/08/28 10:40:27;;;;;;;;;;;;;;;21.10;61.71;98110.13;5043203;28;20280;-82
2022/08/28 10:42:57;;;;;;;;;;;;;;;21.11;62.38;98116.44;5044196;28;19929;-81
2022/08/28 10:45:32;;;;;;;;;;;;;;;20.92;62.78;98115.41;5043681;28;19924;-82
2022/08/28 10:48:11;;;;;;;;;;;;;;;20.89;61.96;98121.69;5049138;28;19970;-81
2022/08/28 10:50:42;;;;;;;;;;;;;;;20.85;61.36;98118.09;5044660;28;19921;-78
2022/08/28 10:53:10;;;;;;;;;;;;;;;21.12;63.01;98112.50;5047398;28;19931;-78
2022/08/28 10:55:39;;;;;;;;;;;;;;;21.18;61.40;98116.53;5045797;28;19959;-80
2022/08/28 10:58:08;;;;;;;;;;;;;;;21.24;61.16;98115.00;5045844;28;19952;-80
2022/08/28 11:00:53;;;;;;;;;;;;;;;21.25;59.97;98115.81;5052607;28;19988;-80
2022/08/28 11:03:22;;;;;;;;;;;;;;;21.29;60.25;98122.16;5052519;28;19921;-82
2022/08/28 11:06:04;;;;;;;;;;;;;;;21.16;60.94;98124.41;5023243;28;23924;-82
2022/08/28 11:08:35;;;;;;;;;;;;;;;21.06;59.33;98119.53;5044536;28;19932;-82
2022/08/28 11:11:05;;;;;;;;;;;;;;;21.20;60.06;98125.25;5047031;28;19971;-84
2022/08/28 11:13:52;;;;;;;;;;;;;;;21.48;58.52;98124.00;5053828;28;20014;-83
2022/08/28 11:16:23;;;;;;;;;;;;;;;21.76;59.40;98124.28;5055747;28;19925;-83
2022/08/28 11:18:59;;;;;;;;;;;;;;;21.84;58.27;98122.38;5047836;28;20019;-83
2022/08/28 11:21:30;;;;;;;;;;;;;;;21.41;58.41;98125.53;5045864;28;19975;-83
2022/08/28 11:24:00;;;;;;;;;;;;;;;21.74;58.46;98120.34;5047744;28;20290;-82
2022/08/28 11:26:30;;;;;;;;;;;;;;;21.58;58.98;98131.63;5041523;28;19925;-81
2022/08/28 11:28:59;;;;;;;;;;;;;;;21.69;58.87;98124.25;5022960;28;19924;-81
2022/08/28 11:31:42;;;;;;;;;;;;;;;21.67;59.32;98126.56;5044593;28;19929;-82
2022/08/28 11:34:27;;;;;;;;;;;;;;;21.63;59.15;98136.81;5044515;28;19982;-81
2022/08/28 11:36:58;;;;;;;;;;;;;;;21.73;58.08;98132.53;5041316;28;19948;-84
2022/08/28 11:39:26;;;;;;;;;;;;;;;21.53;58.36;98138.28;5043157;28;19979;-82
2022/08/28 11:42:32;;;;;;;;;;;;;;;21.57;57.94;98133.59;5028161;28;20397;-83
2022/08/28 11:45:05;;;;;;;;;;;;;;;21.64;59.14;98122.59;5034008;28;19929;-83
2022/08/28 11:47:55;;;;;;;;;;;;;;;21.57;57.84;98124.47;5042897;28;19925;-83
2022/08/28 11:50:28;;;;;;;;;;;;;;;21.59;58.92;98124.91;5040603;28;19960;-83
2022/08/28 11:53:26;;;;;;;6.18;3.20;;;;;;;21.49;58.15;98131.91;5050295;28;20421;-84
2022/08/28 11:56:27;;;;;;;7.88;3.50;;;;;;;21.62;58.33;98132.44;5052615;28;20504;-83
2022/08/28 11:59:23;;;;;;;8.10;3.28;;;;;;;21.58;56.03;98134.41;5014997;28;20436;-83
2022/08/28 12:02:31;;;;;;;6.47;2.97;;;;;;;21.66;55.07;98131.31;5048522;28;20426;-83
2022/08/28 12:05:01;;;;;;;5.22;3.22;;;;;;;21.55;55.77;98141.47;5038097;28;20442;-84
2022/08/28 12:07:35;;;;;;;6.15;3.00;;;;;;;21.75;55.99;98122.72;5031078;28;20403;-83
2022/08/28 12:10:45;;;;;;;7.30;2.92;;;;;;;21.60;56.56;98126.50;5036496;28;20427;-82
2022/08/28 12:13:46;;;;;;;5.68;3.10;;;;;;;21.76;57.83;98118.75;5049586;28;20844;-82
2022/08/28 12:16:14;;;;;;;6.80;3.17;;;;;;;21.69;58.12;98113.97;5044969;28;20779;-80
2022/08/28 12:19:02;;;;;;;7.10;3.53;;;;;;;21.68;59.30;98117.13;5051677;28;20437;-85
2022/08/28 12:21:36;;;;;;;7.27;3.43;;;;;;;21.70;58.27;98120.28;5046629;28;20441;-83
2022/08/28 12:24:06;;;;;;;5.25;3.58;;;;;;;21.57;57.88;98118.94;5048412;28;20434;-90
2022/08/28 12:29:45;;;;;;;8.77;3.97;;;;;;;21.83;58.62;98118.81;5026052;28;21718;-85
2022/08/28 12:32:29;;;;;;;5.55;3.28;;;;;;;21.63;58.52;98125.75;5044535;28;20783;-84
2022/08/28 12:35:13;;;;;;;5.88;3.30;;;;;;;21.66;58.09;98117.47;5050073;28;20742;-90
2022/08/28 12:37:45;;;;;;;6.82;3.55;;;;;;;21.51;58.60;98106.66;5063846;28;20464;-83
2022/08/28 12:40:21;;;;;;;6.13;2.97;;;;;;;21.64;58.51;98119.84;5044531;28;20457;-82
2022/08/28 12:42:54;;;;;;;7.88;3.25;;;;;;;21.78;57.17;98115.63;5043101;28;20433;-85
2022/08/28 12:45:28;;;;;;;7.70;3.25;;;;;;;21.78;57.77;98116.41;5029873;28;20480;-85
2022/08/28 12:48:01;;;;;;;8.10;3.50;;;;;;;22.02;57.26;98119.78;5041818;28;20423;-85
2022/08/28 12:50:34;;;;;;;6.00;3.28;;;;;;;21.96;57.52;98116.59;5057215;28;20429;-86
2022/08/28 12:53:05;;;;;;;7.83;3.50;;;;;;;21.91;58.13;98120.50;5027690;28;20430;-82
2022/08/28 12:55:34;;;;;;;8.40;3.63;;;;;;;21.92;57.52;98121.28;5050705;28;20419;-81
2022/08/28 12:58:03;;;;;;;6.60;3.15;;;;;;;21.77;58.20;98114.81;5045204;28;20409;-82
2022/08/28 13:00:49;;;;;;;6.25;2.75;;;;;;;21.60;58.57;98115.44;5032506;28;20430;-89
2022/08/28 13:03:23;;;;;;;5.25;3.15;;;;;;;21.67;58.56;98110.75;5044788;28;20413;-83
2022/08/28 13:06:00;;;;;;;8.45;3.80;;;;;;;21.72;59.10;98109.63;5048835;28;20517;-83
2022/08/28 13:08:28;;;;;;;6.28;3.40;;;;;;;21.63;58.45;98111.94;5040272;28;20483;-84
2022/08/28 13:10:58;;;;;;;6.80;3.80;;;;;;;21.74;58.28;98114.81;5042943;28;20431;-84
2022/08/28 13:13:36;;;;;;;8.87;3.73;;;;;;;22.00;58.13;98111.06;5046892;28;20421;-84
2022/08/28 13:16:06;;;;;;;6.43;4.10;;;;;;;21.91;57.65;98112.19;5052818;28;20405;-85
2022/08/28 13:18:52;;;;;;;6.78;3.50;;;;;;;21.67;58.35;98110.75;5043170;28;20423;-82
2022/08/28 13:21:30;;;;;;;6.00;3.15;;;;;;;21.59;57.23;98108.34;5041702;28;20497;-84
2022/08/28 13:24:41;;;;;;;5.47;3.17;;;;;;;21.73;57.73;98113.19;5046985;28;21010;-84
2022/08/28 13:27:19;;;;;;;7.72;3.83;;;;;;;21.86;58.42;98111.75;5044275;28;20421;-85
2022/08/28 13:30:05;;;;;;;6.18;3.45;;;;;;;21.90;57.81;98107.84;5047270;28;20479;-84
2022/08/28 13:32:37;;;;;;;6.35;3.33;;;;;;;21.83;58.51;98106.97;5049918;28;20406;-84
2022/08/28 13:35:15;;;;;;;5.97;3.20;;;;;;;22.03;57.18;98107.56;5031326;28;20489;-84
2022/08/28 13:37:46;;;;;;;5.30;3.28;;;;;;;21.96;57.73;98105.53;5046283;28;20469;-84
2022/08/28 13:40:24;;;;;;;6.57;3.25;;;;;;;21.87;56.98;98105.81;5046298;28;20452;-84
2022/08/28 13:43:15;;;;;;;5.78;3.08;;;;;;;21.95;56.79;98104.72;5051039;28;20409;-83
2022/08/28 13:45:46;;;;;;;7.40;3.10;;;;;;;22.09;56.88;98103.25;5053510;28;20500;-84
2022/08/28 13:48:17;;;;;;;5.35;2.83;;;;;;;21.96;55.89;98097.22;5043452;28;20415;-83
2022/08/28 13:50:47;;;;;;;6.43;2.90;;;;;;;22.21;56.28;98108.50;5044517;28;20787;-83
2022/08/28 13:53:17;;;;;;;5.60;2.85;;;;;;;22.20;55.88;98102.19;5031959;28;20481;-84
2022/08/28 13:55:55;;;;;;;8.20;3.27;;;;;;;22.04;56.21;98095.31;5042459;28;20409;-82
2022/08/28 13:58:23;;;;;;;6.93;3.15;;;;;;;22.07;56.95;98100.09;5044890;28;20410;-84
2022/08/28 14:00:53;;;;;;;5.60;2.77;;;;;;;22.28;55.84;98094.75;5058942;28;20411;-83
2022/08/28 14:03:36;;;;;;;6.75;2.92;;;;;;;22.06;56.71;98098.50;5042987;28;20873;-84
2022/08/28 14:06:10;;;;;;;6.30;3.13;;;;;;;22.13;56.25;98096.59;5047058;28;20485;-83
2022/08/28 14:08:39;;;;;;;5.97;3.57;;;;;;;22.14;55.69;98100.16;5044987;28;20415;-85
2022/08/28 14:11:08;;;;;;;6.18;3.25;;;;;;;22.08;54.93;98101.66;5044457;28;20417;-83
2022/08/28 14:13:40;;;;;;;6.32;2.60;;;;;;;21.98;55.30;98095.66;5051055;28;21332;-84
2022/08/28 14:16:24;;;;;;;9.10;5.30;;;;;;;22.05;55.60;98096.88;5040457;28;20483;-85
2022/08/28 14:18:52;;;;;;;6.57;3.30;;;;;;;21.98;56.69;98094.84;5045033;28;20411;-82
2022/08/28 14:21:23;;;;;;;10.98;9.57;;;;;;;22.00;54.89;98091.69;5050898;28;20420;-83
2022/08/28 14:23:54;;;;;;;6.72;3.10;;;;;;;22.10;55.19;98097.34;5048700;28;20409;-81
2022/08/28 14:26:23;;;;;;;252.03;123.43;;;;;;;22.16;54.46;98095.06;5044392;28;20411;-83
2022/08/28 14:28:52;;;;;;;204.15;105.68;;;;;;;21.98;53.59;98097.63;5045527;28;20528;-82
2022/08/28 14:31:21;;;;;;;5.72;2.58;;;;;;;21.89;54.30;98095.19;5046951;28;20441;-83